Strona główna
METAR-TAF:

METAR-TAF

Lotnisko :

Port lotniczy Yap

Yap, Mikronezja

Szerokość geograficzna: 09-29N, Długość geograficzna: 138-05E, wysokość: 28 m

Aktualna obserwacja pogody

Raport powstał 52 minut temu, godzina 02:51 UTC
Wiatr 7 kt od wschodnio-północny wschód
Temperatura 31°C
Wilgotność 71%
Ciśnienie 1009 hPa
Widzialność: 19.3 km
Mało chmury na wysokości 1700 ft
Przerywane chmury na wysokości 30000 ft

METAR: PTYA 100251Z 07007KT 12SM FEW017 BKN300 31/25 A2980 RMK SLP091 8/101 T03050247 58003

czas: 13:43 (03:43 UTC)

Prognoza

Raport powstał 4 godziny i 15 minut temu, godzina 23:28 UTC
Prognoza ważna od 10 godzina 00 UTC do 10 godzina 24 UTC
Wiatr 6 kt od wschodnio-północny wschód
Widzialność: 10 km
Rozproszone chmury na wysokości 1600 ft
Przerywane chmury na wysokości 6000 ft
przelotny w pobliże

TAF: PTYA 092328Z 1000/1024 06006KT P6SM VCSH SCT016 BKN060

Obserwacja i prognoza pogody dla ponad 4000 lotnisk (raport METAR i TAF).

Dostępne stacje oznaczono żółtymi i czerwonymi punktami na mapie.

Najedź kursorem aby zobaczyć nazwę stacji.

Kliknij aby zobaczyć obserwacje i prognozy pogody.

Aby zmienić mapę: kliknij na zielony przycisk z czarnym krzyżykiem, aby powiększyć; na zielony przycisk z myślnikiem, aby pomniejszyć; na zielone strzałki, aby przejść do map sąsiednich.


METAR-TAF: